createdAt,value
2018-02-06T00:02:01.713Z,4.43
2018-02-06T00:04:29.285Z,4.90
2018-02-06T00:06:56.852Z,4.83
2018-02-06T00:09:25.210Z,5.37
2018-02-06T00:11:52.871Z,5.27
2018-02-06T00:14:20.434Z,4.50
2018-02-06T00:16:48.020Z,5.87
2018-02-06T00:19:16.357Z,6.60
2018-02-06T00:21:43.909Z,8.23
2018-02-06T00:24:11.486Z,5.93
2018-02-06T00:26:39.800Z,8.53
2018-02-06T00:29:07.387Z,6.73
2018-02-06T00:31:34.943Z,6.90
2018-02-06T00:34:02.519Z,6.90
2018-02-06T00:36:30.102Z,6.33
2018-02-06T00:38:57.659Z,4.70
2018-02-06T00:41:25.255Z,9.73
2018-02-06T00:43:52.845Z,10.53
2018-02-06T00:46:20.387Z,9.97
2018-02-06T00:48:48.003Z,9.53
2018-02-06T00:51:15.576Z,8.90
2018-02-06T00:53:43.145Z,7.90
2018-02-06T00:56:10.707Z,7.57
2018-02-06T00:58:39.081Z,9.53
2018-02-06T01:01:06.654Z,6.67
2018-02-06T01:03:34.206Z,6.97
2018-02-06T01:06:01.824Z,8.60
2018-02-06T01:08:30.173Z,6.50
2018-02-06T01:10:57.744Z,8.80
2018-02-06T01:13:26.190Z,10.47
2018-02-06T01:15:53.764Z,8.20
2018-02-06T01:18:21.337Z,9.97
2018-02-06T01:20:48.930Z,9.40
2018-02-06T01:23:16.495Z,8.87
2018-02-06T01:25:44.071Z,12.47
2018-02-06T01:28:11.627Z,9.47
2018-02-06T01:30:39.188Z,11.00
2018-02-06T01:33:07.517Z,14.20
2018-02-06T01:35:35.136Z,14.67
2018-02-06T01:38:03.492Z,11.37
2018-02-06T01:40:31.137Z,9.07
2018-02-06T01:42:58.683Z,8.97
2018-02-06T01:45:26.230Z,11.30
2018-02-06T01:47:53.812Z,13.33
2018-02-06T01:50:21.369Z,11.10
2018-02-06T01:52:48.970Z,9.77
2018-02-06T01:55:16.556Z,9.80
2018-02-06T01:57:44.128Z,6.93
2018-02-06T02:00:11.694Z,11.10
2018-02-06T02:02:39.261Z,9.10
2018-02-06T02:05:07.637Z,9.20
2018-02-06T02:07:35.175Z,10.20
2018-02-06T02:10:02.723Z,10.93
2018-02-06T02:12:30.308Z,10.43
2018-02-06T02:14:57.864Z,8.47
2018-02-06T02:17:25.464Z,8.73
2018-02-06T02:19:53.032Z,8.77
2018-02-06T02:22:20.620Z,8.93
2018-02-06T02:24:48.187Z,7.80
2018-02-06T02:27:15.779Z,9.23
2018-02-06T02:29:43.347Z,8.13
2018-02-06T02:32:10.931Z,8.50
2018-02-06T02:34:38.494Z,8.47
2018-02-06T02:37:06.042Z,8.53
2018-02-06T02:39:34.387Z,7.20
2018-02-06T04:40:12.048Z,6.30
2018-02-06T04:42:40.394Z,5.77
2018-02-06T04:45:07.943Z,5.40
2018-02-06T04:47:35.531Z,5.43
2018-02-06T04:50:03.140Z,5.73
2018-02-06T04:52:30.714Z,6.27
2018-02-06T04:54:58.264Z,5.80
2018-02-06T04:57:26.596Z,4.37
2018-02-06T04:59:54.136Z,4.20
2018-02-06T05:02:21.698Z,5.90
2018-02-06T05:04:49.245Z,5.43
2018-02-06T05:07:16.820Z,4.40
2018-02-06T05:09:44.367Z,4.90
2018-02-06T05:12:11.944Z,4.93
2018-02-06T05:14:39.502Z,5.23
2018-02-06T05:17:07.049Z,4.40
2018-02-06T05:19:35.390Z,5.00
2018-02-06T05:22:02.936Z,5.13
2018-02-06T05:24:31.270Z,4.43
2018-02-06T05:26:58.815Z,5.13
2018-02-06T05:29:27.185Z,5.30
2018-02-06T05:31:54.736Z,4.73
2018-02-06T05:34:22.317Z,4.60
2018-02-06T05:36:49.858Z,4.10
2018-02-06T05:39:17.436Z,5.00
2018-02-06T05:41:44.997Z,4.97
2018-02-06T05:44:12.567Z,3.77
2018-02-06T05:46:40.125Z,4.60
2018-02-06T05:49:07.700Z,4.40
2018-02-06T05:51:35.295Z,5.10
2018-02-06T05:54:02.872Z,5.70
2018-02-06T05:56:30.424Z,5.30
2018-02-06T05:58:57.976Z,5.07
2018-02-06T06:01:25.543Z,6.37
2018-02-06T06:03:53.092Z,5.40
2018-02-06T06:06:21.423Z,5.30
2018-02-06T06:08:48.969Z,5.97
2018-02-06T06:11:16.540Z,4.70
2018-02-06T06:13:44.083Z,4.30
2018-02-06T06:16:11.654Z,4.10
2018-02-06T06:18:39.199Z,4.70
2018-02-06T06:21:06.772Z,4.53
2018-02-06T06:23:34.336Z,4.83
2018-02-06T06:26:01.926Z,4.63
2018-02-06T06:28:29.507Z,4.73
2018-02-06T06:30:57.065Z,5.23
2018-02-06T06:33:24.620Z,4.87
2018-02-06T06:35:52.194Z,4.47
2018-02-06T06:38:19.748Z,5.40
2018-02-06T06:40:47.349Z,4.90
2018-02-06T06:43:14.910Z,5.43
2018-02-06T06:45:42.631Z,5.90
2018-02-06T06:48:10.294Z,6.87
2018-02-06T06:50:38.216Z,6.30
2018-02-06T06:53:05.823Z,9.23
2018-02-06T06:55:33.377Z,9.00
2018-02-06T06:58:00.962Z,7.63
2018-02-06T07:00:28.508Z,6.23
2018-02-06T07:02:56.850Z,6.10
2018-02-06T07:05:24.409Z,5.40
2018-02-06T07:07:51.976Z,6.13
2018-02-06T07:10:20.283Z,7.37
2018-02-06T07:12:47.859Z,7.83
2018-02-06T07:15:16.205Z,8.93
2018-02-06T07:17:43.776Z,9.40
2018-02-06T07:20:11.345Z,7.20
2018-02-06T07:22:38.916Z,7.70
2018-02-06T07:25:07.233Z,7.40
2018-02-06T07:27:34.775Z,5.70
2018-02-06T07:30:02.340Z,5.40
2018-02-06T07:32:29.893Z,5.20
2018-02-06T07:34:57.469Z,5.37
2018-02-06T07:37:25.026Z,5.33
2018-02-06T07:39:52.592Z,4.57
2018-02-06T07:42:20.149Z,5.37
2018-02-06T07:44:47.724Z,5.00
2018-02-06T07:47:15.272Z,4.20
2018-02-06T07:49:43.607Z,4.40
2018-02-06T07:52:11.153Z,5.40
2018-02-06T07:54:39.489Z,4.63
2018-02-06T07:57:07.036Z,4.47
2018-02-06T07:59:35.370Z,4.67
2018-02-06T08:02:02.945Z,4.47
2018-02-06T08:04:30.526Z,4.87
2018-02-06T08:06:58.081Z,5.13
2018-02-06T08:09:25.668Z,4.57
2018-02-06T08:11:53.207Z,5.37
2018-02-06T08:14:20.759Z,4.93
2018-02-06T08:16:48.330Z,5.90
2018-02-06T08:19:16.655Z,4.13
2018-02-06T08:21:44.228Z,3.93
2018-02-06T08:24:11.780Z,4.20
2018-02-06T08:26:39.353Z,5.27
2018-02-06T08:29:06.911Z,5.00
2018-02-06T08:31:34.467Z,5.03
2018-02-06T08:34:02.030Z,5.00
2018-02-06T08:36:30.372Z,5.47
2018-02-06T08:38:57.925Z,5.10
2018-02-06T08:41:26.325Z,4.50
2018-02-06T08:43:54.641Z,4.97
2018-02-06T08:46:22.208Z,3.90
2018-02-06T08:48:50.510Z,5.00
2018-02-06T08:51:18.835Z,4.40
2018-02-06T08:53:46.400Z,4.40
2018-02-06T08:56:15.848Z,5.47
2018-02-06T08:58:43.397Z,5.10
2018-02-06T09:01:10.973Z,5.03
2018-02-06T09:03:38.530Z,5.63
2018-02-06T09:06:06.117Z,4.93
2018-02-06T09:08:33.667Z,6.13
2018-02-06T09:11:01.235Z,5.70
2018-02-06T09:13:29.580Z,6.03
2018-02-06T09:15:57.130Z,5.87
2018-02-06T09:18:24.696Z,6.20
2018-02-06T09:20:53.000Z,5.20
2018-02-06T09:23:21.363Z,6.40
2018-02-06T09:25:48.933Z,6.00
2018-02-06T09:28:16.565Z,7.17
2018-02-06T09:30:44.891Z,7.57
2018-02-06T09:33:12.457Z,8.90
2018-02-06T09:35:40.775Z,11.47
2018-02-06T09:38:08.350Z,12.33
2018-02-06T09:40:36.002Z,13.60
2018-02-06T09:43:03.587Z,12.17
2018-02-06T09:45:31.230Z,11.70
2018-02-06T09:47:59.562Z,11.50
2018-02-06T09:50:27.145Z,11.20
2018-02-06T09:52:55.453Z,9.07
2018-02-06T09:55:23.254Z,9.13
2018-02-06T09:57:50.825Z,9.60
2018-02-06T10:00:18.420Z,8.33
2018-02-06T10:02:45.968Z,8.43
2018-02-06T10:05:13.548Z,7.80
2018-02-06T10:07:41.084Z,8.90
2018-02-06T10:10:08.652Z,8.60
2018-02-06T10:12:36.191Z,8.90
2018-02-06T10:15:04.537Z,8.80
2018-02-06T10:17:32.080Z,9.50
2018-02-06T10:20:00.410Z,7.17
2018-02-06T10:22:27.943Z,6.77
2018-02-06T10:24:55.491Z,5.63
2018-02-06T10:27:23.019Z,6.70
2018-02-06T10:29:50.587Z,6.30
2018-02-06T10:32:18.126Z,6.33
2018-02-06T10:34:45.694Z,7.40
2018-02-06T10:37:13.227Z,7.40
2018-02-06T10:39:41.127Z,8.20
2018-02-06T10:42:08.658Z,7.60
2018-02-06T10:44:36.211Z,8.23
2018-02-06T10:47:03.739Z,7.30
2018-02-06T10:49:31.275Z,7.30
2018-02-06T10:51:58.832Z,6.17
2018-02-06T10:54:26.368Z,6.37
2018-02-06T10:56:53.934Z,6.83
2018-02-06T10:59:22.235Z,5.67
2018-02-06T11:01:50.552Z,6.00
2018-02-06T11:04:18.847Z,6.90
2018-02-06T11:06:47.158Z,6.70
2018-02-06T11:09:14.692Z,6.40
2018-02-06T11:11:42.242Z,6.97
2018-02-06T11:14:10.698Z,6.10
2018-02-06T11:16:38.247Z,6.00
2018-02-06T11:19:05.782Z,6.53
2018-02-06T11:21:34.099Z,6.40
2018-02-06T11:24:01.643Z,5.50
2018-02-06T11:26:29.603Z,5.53
2018-02-06T11:28:57.135Z,5.40
2018-02-06T11:31:24.665Z,6.60
2018-02-06T11:33:52.987Z,6.77
2018-02-06T11:36:20.945Z,6.20
2018-02-06T11:38:48.501Z,6.67
2018-02-06T11:41:16.807Z,4.57
2018-02-06T11:43:45.132Z,5.50
2018-02-06T11:46:12.677Z,5.60
2018-02-06T11:48:40.251Z,5.00
2018-02-06T11:51:08.569Z,6.70
2018-02-06T11:53:36.123Z,6.50
2018-02-06T11:56:03.671Z,5.73
2018-02-06T11:58:31.232Z,5.60
2018-02-06T12:00:59.523Z,5.47
2018-02-06T12:03:27.852Z,5.07
2018-02-06T12:05:55.392Z,4.90
2018-02-06T12:08:22.952Z,6.27
2018-02-06T12:10:50.494Z,5.20
2018-02-06T12:13:18.812Z,5.90
2018-02-06T12:15:46.374Z,6.00
2018-02-06T12:18:13.914Z,5.63
2018-02-06T12:20:41.476Z,5.57
2018-02-06T12:23:09.018Z,5.60
2018-02-06T12:25:37.339Z,5.60
2018-02-06T12:28:04.903Z,6.00
2018-02-06T12:30:32.476Z,5.80
2018-02-06T12:33:00.003Z,6.90
2018-02-06T12:35:27.563Z,8.00
2018-02-06T12:37:55.876Z,7.40
2018-02-06T12:40:24.195Z,7.53
2018-02-06T12:42:51.735Z,8.10
2018-02-06T12:45:19.307Z,7.77
2018-02-06T12:47:46.851Z,7.63
2018-02-06T12:50:14.419Z,7.13
2018-02-06T12:52:41.955Z,7.30
2018-02-06T12:55:09.534Z,7.37
2018-02-06T12:57:37.067Z,7.87
2018-02-06T13:00:04.599Z,7.30
2018-02-06T13:02:32.162Z,6.10
2018-02-06T13:04:59.696Z,6.33
2018-02-06T13:07:28.116Z,6.03
2018-02-06T13:09:55.724Z,6.70
2018-02-06T13:12:23.314Z,6.47
2018-02-06T13:14:50.861Z,5.73
2018-02-06T13:17:18.429Z,5.97
2018-02-06T13:19:45.961Z,7.50
2018-02-06T13:22:13.510Z,4.87
2018-02-06T13:24:41.815Z,5.70
2018-02-06T13:27:10.131Z,4.33
2018-02-06T13:29:37.666Z,5.43
2018-02-06T13:32:05.210Z,4.60
2018-02-06T13:34:32.763Z,4.60
2018-02-06T13:37:02.083Z,4.40
2018-02-06T13:39:29.616Z,4.60
2018-02-06T13:41:57.189Z,5.60
2018-02-06T13:44:24.724Z,4.73
2018-02-06T13:46:52.254Z,5.60
2018-02-06T13:49:19.948Z,6.00
2018-02-06T13:51:47.494Z,5.27
2018-02-06T13:54:15.857Z,5.53
2018-02-06T13:56:43.397Z,6.00
2018-02-06T13:59:10.942Z,6.80
2018-02-06T14:01:38.476Z,5.63
2018-02-06T14:04:06.068Z,6.03
2018-02-06T14:06:33.621Z,5.63
2018-02-06T14:09:01.948Z,6.47
2018-02-06T14:11:29.508Z,5.73
2018-02-06T14:13:57.153Z,9.20
2018-02-06T14:16:24.969Z,6.80
2018-02-06T14:18:52.749Z,8.43
2018-02-06T14:21:20.616Z,8.83
2018-02-06T14:23:48.275Z,7.80
2018-02-06T14:26:16.042Z,7.93
2018-02-06T14:28:43.651Z,10.40
2018-02-06T14:31:11.237Z,10.23
2018-02-06T14:33:38.777Z,9.10
2018-02-06T14:36:06.342Z,10.07
2018-02-06T14:38:33.888Z,8.93
2018-02-06T14:41:01.518Z,11.53
2018-02-06T14:43:29.061Z,8.50
2018-02-06T14:45:56.634Z,10.70
2018-02-06T14:48:24.184Z,13.20
2018-02-06T14:50:51.757Z,10.80
2018-02-06T14:53:19.309Z,10.60
2018-02-06T14:55:46.898Z,10.40
2018-02-06T14:58:14.443Z,11.40
2018-02-06T15:00:42.015Z,11.33
2018-02-06T15:03:10.324Z,10.93
2018-02-06T15:05:38.660Z,10.83
2018-02-06T15:08:06.969Z,11.23
2018-02-06T15:10:34.503Z,11.30
2018-02-06T15:13:02.837Z,14.00
2018-02-06T15:15:30.385Z,14.33
2018-02-06T15:17:58.720Z,11.97
2018-02-06T15:20:26.281Z,12.33
2018-02-06T15:22:54.615Z,12.43
2018-02-06T15:25:22.164Z,12.70
2018-02-06T15:27:50.496Z,12.67
2018-02-06T15:30:18.046Z,13.77
2018-02-06T15:32:46.401Z,13.80
2018-02-06T15:35:13.952Z,13.70
2018-02-06T15:37:41.528Z,12.40
2018-02-06T15:40:09.075Z,11.80
2018-02-06T15:42:36.650Z,12.60
2018-02-06T15:45:04.205Z,13.70
2018-02-06T15:47:31.772Z,12.80
2018-02-06T15:49:59.328Z,15.23
2018-02-06T15:52:26.934Z,15.90
2018-02-06T15:54:54.476Z,16.00
2018-02-06T15:57:22.280Z,16.00
2018-02-06T15:59:49.856Z,15.77
2018-02-06T16:02:17.404Z,20.43
2018-02-06T16:04:44.963Z,20.60
2018-02-06T16:07:12.510Z,13.40
2018-02-06T16:09:40.108Z,14.00
2018-02-06T16:12:07.663Z,13.10
2018-02-06T16:14:35.999Z,12.93
2018-02-06T16:17:03.545Z,14.63
2018-02-06T16:19:31.879Z,13.50
2018-02-06T16:21:59.429Z,13.07
2018-02-06T16:24:27.769Z,24.27
2018-02-06T16:26:55.320Z,35.40
2018-02-06T16:29:23.647Z,32.50
2018-02-06T16:31:51.248Z,24.00
2018-02-06T16:34:18.824Z,23.53
2018-02-06T16:36:46.378Z,24.83
2018-02-06T16:39:14.719Z,21.63
2018-02-06T16:41:42.292Z,21.73
2018-02-06T16:44:09.860Z,22.70
2018-02-06T16:46:37.421Z,20.70
2018-02-06T16:49:05.013Z,15.27
2018-02-06T16:51:33.329Z,15.03
2018-02-06T16:54:00.886Z,16.67
2018-02-06T16:56:28.454Z,14.37
2018-02-06T16:58:56.777Z,13.17
2018-02-06T17:01:24.343Z,14.37
2018-02-06T17:03:51.901Z,21.20
2018-02-06T17:06:19.458Z,21.40
2018-02-06T17:08:47.022Z,16.07
2018-02-06T17:11:15.352Z,15.17
2018-02-06T17:13:42.901Z,14.90
2018-02-06T17:16:11.243Z,13.60
2018-02-06T17:18:38.791Z,13.97
2018-02-06T17:21:07.133Z,14.37
2018-02-06T17:23:34.694Z,24.23
2018-02-06T17:26:02.292Z,27.93
2018-02-06T17:28:29.840Z,27.83
2018-02-06T17:30:58.192Z,21.00
2018-02-06T17:33:25.742Z,21.50
2018-02-06T17:35:53.405Z,21.00
2018-02-06T17:38:20.933Z,19.00
2018-02-06T17:40:48.523Z,17.30
2018-02-06T17:43:16.089Z,26.30
2018-02-06T17:45:43.673Z,49.70
2018-02-06T17:48:11.230Z,75.63
2018-02-06T17:50:39.551Z,47.03
2018-02-06T17:53:07.125Z,33.10
2018-02-06T17:55:35.439Z,21.97
2018-02-06T17:58:03.007Z,17.80
2018-02-06T18:00:31.333Z,17.10
2018-02-06T18:02:58.911Z,17.80
2018-02-06T18:05:26.462Z,22.80
2018-02-06T18:07:54.816Z,22.40
2018-02-06T18:10:22.404Z,22.50
2018-02-06T18:12:49.973Z,12.70
2018-02-06T18:15:17.518Z,11.97
2018-02-06T18:17:45.087Z,13.43
2018-02-06T18:20:12.632Z,11.80
2018-02-06T18:22:40.249Z,11.47
2018-02-06T18:25:07.835Z,12.53
2018-02-06T18:27:35.408Z,12.13
2018-02-06T18:30:02.973Z,11.10
2018-02-06T18:32:30.523Z,13.60
2018-02-06T18:34:58.857Z,14.27
2018-02-06T18:37:26.401Z,12.47
2018-02-06T18:39:55.576Z,12.00
2018-02-06T18:42:23.133Z,11.63
2018-02-06T18:44:50.701Z,12.13
2018-02-06T18:47:19.021Z,10.37
2018-02-06T18:49:46.593Z,10.00
2018-02-06T18:52:15.078Z,11.60
2018-02-06T18:54:49.116Z,14.63
2018-02-06T18:57:16.736Z,23.37
2018-02-06T18:59:44.315Z,19.20
2018-02-06T19:02:12.629Z,15.07
2018-02-06T19:04:40.209Z,12.33
2018-02-06T19:07:07.759Z,15.53
2018-02-06T19:09:35.340Z,13.60
2018-02-06T19:12:02.883Z,13.43
2018-02-06T19:14:30.564Z,17.40
2018-02-06T19:16:58.110Z,13.33
2018-02-06T19:19:26.424Z,18.27
2018-02-06T19:21:54.036Z,26.43
2018-02-06T19:24:21.576Z,17.30
2018-02-06T19:26:49.930Z,11.33
2018-02-06T19:29:17.473Z,11.37
2018-02-06T19:31:45.857Z,10.30
2018-02-06T19:34:14.139Z,10.50
2018-02-06T19:36:41.730Z,11.17
2018-02-06T19:39:09.271Z,12.60
2018-02-06T19:41:36.857Z,11.33
2018-02-06T19:44:04.391Z,13.47
2018-02-06T19:46:31.960Z,14.33
2018-02-06T19:48:59.508Z,11.47
2018-02-06T19:51:31.573Z,11.83
2018-02-06T19:53:59.212Z,12.80
2018-02-06T19:56:28.153Z,15.77
2018-02-06T19:58:57.175Z,15.13
2018-02-06T20:01:28.263Z,11.67
2018-02-06T20:03:57.513Z,11.47
2018-02-06T20:06:27.709Z,11.07
2018-02-06T20:08:58.422Z,11.37
2018-02-06T20:11:28.676Z,10.83
2018-02-06T20:13:58.917Z,10.13
2018-02-06T20:16:29.882Z,11.90
2018-02-06T20:18:58.956Z,12.97
2018-02-06T20:21:28.068Z,12.00
2018-02-06T20:23:58.346Z,12.70
2018-02-06T20:26:28.490Z,10.73
2018-02-06T20:28:58.670Z,10.07
2018-02-06T20:31:30.849Z,9.70
2018-02-06T20:33:59.177Z,10.27
2018-02-06T20:36:29.789Z,9.10
2018-02-06T20:39:02.721Z,10.63
2018-02-06T20:41:37.039Z,11.10
2018-02-06T20:44:05.184Z,11.67
2018-02-06T20:46:32.880Z,11.30
2018-02-06T20:49:00.476Z,11.50
2018-02-06T20:51:28.023Z,10.00
2018-02-06T20:53:59.466Z,12.67
2018-02-06T20:56:27.793Z,12.90
2018-02-06T20:59:01.384Z,14.40
2018-02-06T21:01:30.867Z,14.00
2018-02-06T21:03:59.261Z,13.87
2018-02-06T21:06:26.841Z,14.83
2018-02-06T21:08:54.427Z,13.70
2018-02-06T21:11:21.994Z,14.33
2018-02-06T21:13:49.553Z,14.47
2018-02-06T21:16:17.893Z,14.13
2018-02-06T21:18:45.446Z,14.40
2018-02-06T21:21:13.794Z,13.77
2018-02-06T21:23:41.337Z,14.07
2018-02-06T21:26:09.681Z,15.50
2018-02-06T21:28:37.225Z,17.03
2018-02-06T21:31:05.564Z,15.50
2018-02-06T21:33:33.115Z,19.23
2018-02-06T21:36:01.460Z,26.43
2018-02-06T21:38:29.012Z,20.93
2018-02-06T21:40:56.591Z,19.87
2018-02-06T21:43:24.153Z,23.30
2018-02-06T21:45:52.540Z,21.50
2018-02-06T21:48:20.098Z,16.97
2018-02-06T21:50:47.665Z,17.43
2018-02-06T21:53:15.976Z,15.90
2018-02-06T21:55:43.519Z,16.67
2018-02-06T21:58:11.847Z,18.73
2018-02-06T22:00:39.406Z,20.07
2018-02-06T22:03:06.967Z,15.93
2018-02-06T22:05:34.503Z,14.07
2018-02-06T22:08:02.084Z,14.60
2018-02-06T22:10:29.628Z,14.83
2018-02-06T22:12:57.966Z,14.30
2018-02-06T22:15:25.519Z,16.87
2018-02-06T22:17:53.865Z,15.87
2018-02-06T22:20:21.418Z,14.27
2018-02-06T22:22:49.749Z,15.00
2018-02-06T22:25:17.289Z,16.17
2018-02-06T22:27:44.860Z,14.87
2018-02-06T22:30:12.414Z,14.73
2018-02-06T22:32:40.005Z,14.60
2018-02-06T22:35:07.578Z,14.97
2018-02-06T22:37:35.134Z,15.43
2018-02-06T22:40:03.468Z,15.07
2018-02-06T22:42:31.355Z,15.00
2018-02-06T22:44:59.382Z,14.50
2018-02-06T22:47:26.947Z,13.90
2018-02-06T22:49:54.521Z,14.63
2018-02-06T22:52:22.090Z,16.30
2018-02-06T22:54:49.668Z,13.60
2018-02-06T22:57:17.225Z,14.33
2018-02-06T22:59:44.792Z,16.10
2018-02-06T23:02:18.984Z,13.83
2018-02-06T23:04:46.769Z,13.30
2018-02-06T23:07:14.312Z,16.00
2018-02-06T23:09:41.887Z,12.93
2018-02-06T23:12:09.428Z,14.13
2018-02-06T23:14:36.993Z,14.67
2018-02-06T23:17:05.311Z,14.57
2018-02-06T23:19:32.892Z,14.73
2018-02-06T23:22:00.448Z,13.87
2018-02-06T23:24:28.025Z,13.00
2018-02-06T23:26:55.584Z,13.97
2018-02-06T23:29:23.896Z,15.20
2018-02-06T23:31:51.465Z,15.40
2018-02-06T23:34:19.007Z,13.77
2018-02-06T23:36:47.342Z,14.03
2018-02-06T23:39:14.900Z,14.57
2018-02-06T23:41:42.479Z,14.67
2018-02-06T23:44:10.800Z,14.90
2018-02-06T23:46:38.383Z,17.00
2018-02-06T23:49:05.927Z,14.73
2018-02-06T23:51:33.503Z,16.30
2018-02-06T23:54:01.056Z,14.70
2018-02-06T23:56:28.649Z,16.57
2018-02-06T23:58:56.193Z,15.47
